Terminal Aerodrome Forecast
Issued by NWS

Home | Current Version | Previous Version | Text Only | Print | Product List | Glossary On
Versions: 1 2 3 4 5 6 7 8 9 10 11 12 13 14 15
000
FTUS43 KGRB 010300 AAA
TAFMTW
TAF AMD
KMTW 010333Z 0104/0124 04005KT 5SM BR OVC012
      TEMPO 0109/0113 2SM BR BKN007
     FM011500 14008KT P6SM BKN025
     FM012000 15009KT P6SM SCT026 BKN250=

USA.gov is the U.S. government's official web portal to all federal, state and local government web resources and services.